createdAt,value
2023-01-27T00:00:16.217Z,4.90
2023-01-27T00:02:44.178Z,6.60
2023-01-27T00:05:13.259Z,8.07
2023-01-27T00:07:45.797Z,8.80
2023-01-27T00:10:15.658Z,5.75
2023-01-27T00:13:02.349Z,4.25
2023-01-27T00:15:30.661Z,8.80
2023-01-27T00:17:57.756Z,2.00
2023-01-27T00:20:43.594Z,4.05
2023-01-27T00:23:37.636Z,6.45
2023-01-27T00:26:06.780Z,4.63
2023-01-27T00:28:38.252Z,2.83
2023-01-27T00:31:08.176Z,5.70
2023-01-27T00:33:35.295Z,4.65
2023-01-27T00:36:08.830Z,5.15
2023-01-27T00:38:42.144Z,8.50
2023-01-27T00:41:20.702Z,3.90
2023-01-27T00:43:48.719Z,5.53
2023-01-27T00:46:16.976Z,11.55
2023-01-27T00:48:43.881Z,5.05
2023-01-27T00:51:13.257Z,3.88
2023-01-27T00:53:40.596Z,3.67
2023-01-27T00:56:07.757Z,3.03
2023-01-27T00:58:34.897Z,4.30
2023-01-27T01:01:04.276Z,6.97
2023-01-27T01:03:33.154Z,4.78
2023-01-27T01:06:04.997Z,4.25
2023-01-27T01:08:33.553Z,4.93
2023-01-27T01:11:00.630Z,7.45
2023-01-27T01:13:28.368Z,4.57
2023-01-27T01:15:56.156Z,3.63
2023-01-27T01:18:23.870Z,3.40
2023-01-27T01:20:50.632Z,6.40
2023-01-27T01:23:17.419Z,4.13
2023-01-27T01:25:55.775Z,5.35
2023-01-27T01:28:23.081Z,3.53
2023-01-27T01:30:49.955Z,6.03
2023-01-27T01:33:17.202Z,4.20
2023-01-27T01:35:44.202Z,4.15
2023-01-27T01:38:11.144Z,5.43
2023-01-27T01:40:42.589Z,6.18
2023-01-27T01:43:17.560Z,4.65
2023-01-27T01:45:50.395Z,4.70
2023-01-27T01:48:31.552Z,4.32
2023-01-27T01:51:04.853Z,10.57
2023-01-27T01:53:40.502Z,6.07
2023-01-27T01:56:13.705Z,4.40
2023-01-27T02:01:15.761Z,6.40
2023-01-27T02:03:47.535Z,6.82
2023-01-27T02:06:14.484Z,5.05
2023-01-27T02:08:46.620Z,6.18
2023-01-27T02:11:13.555Z,6.97
2023-01-27T02:13:41.247Z,4.50
2023-01-27T02:16:10.015Z,6.38
2023-01-27T02:18:39.973Z,5.60
2023-01-27T02:21:07.243Z,6.82
2023-01-27T02:24:02.522Z,4.50
2023-01-27T02:26:33.830Z,5.53
2023-01-27T02:29:05.300Z,4.68
2023-01-27T02:31:32.727Z,5.68
2023-01-27T02:34:04.755Z,8.00
2023-01-27T02:36:34.591Z,6.67
2023-01-27T02:39:03.139Z,5.85
2023-01-27T02:41:34.010Z,4.28
2023-01-27T02:44:01.102Z,4.03
2023-01-27T02:46:28.204Z,6.13
2023-01-27T02:48:55.094Z,6.17
2023-01-27T02:51:21.967Z,4.40
2023-01-27T02:53:48.656Z,7.70
2023-01-27T02:56:15.350Z,7.38
2023-01-27T02:58:42.127Z,5.47
2023-01-27T03:01:09.362Z,6.03
2023-01-27T03:03:36.433Z,7.55
2023-01-27T03:06:03.172Z,4.95
2023-01-27T03:08:29.953Z,8.68
2023-01-27T03:10:56.761Z,7.10
2023-01-27T03:13:24.340Z,7.10
2023-01-27T03:16:11.562Z,6.78
2023-01-27T03:18:40.175Z,4.93
2023-01-27T03:21:10.885Z,7.82
2023-01-27T03:23:37.564Z,7.07
2023-01-27T03:26:07.767Z,7.20
2023-01-27T03:28:34.512Z,9.93
2023-01-27T03:31:09.346Z,10.93
2023-01-27T03:33:36.266Z,12.10
2023-01-27T03:36:22.978Z,10.00
2023-01-27T03:39:08.671Z,8.80
2023-01-27T03:41:53.935Z,17.05
2023-01-27T03:44:39.309Z,11.88
2023-01-27T03:47:06.025Z,12.80
2023-01-27T03:49:32.728Z,9.13
2023-01-27T03:52:00.276Z,12.67
2023-01-27T03:54:27.046Z,11.27
2023-01-27T03:56:53.851Z,12.20
2023-01-27T03:59:20.654Z,11.05
2023-01-27T04:01:47.463Z,13.13
2023-01-27T04:04:33.098Z,11.70
2023-01-27T04:07:02.841Z,8.75
2023-01-27T04:09:35.178Z,11.68
2023-01-27T04:12:06.628Z,12.82
2023-01-27T04:14:37.883Z,9.02
2023-01-27T04:17:16.257Z,11.50
2023-01-27T04:19:43.186Z,10.52
2023-01-27T04:22:12.072Z,7.85
2023-01-27T04:24:38.963Z,10.57
2023-01-27T04:27:08.577Z,7.90
2023-01-27T04:29:40.954Z,6.63
2023-01-27T04:32:12.642Z,7.53
2023-01-27T04:34:41.171Z,5.35
2023-01-27T04:37:09.473Z,5.43
2023-01-27T04:39:36.744Z,6.25
2023-01-27T04:42:03.616Z,6.07
2023-01-27T04:44:30.705Z,7.32
2023-01-27T04:46:57.422Z,4.60
2023-01-27T04:49:26.759Z,7.15
2023-01-27T04:51:54.121Z,6.05
2023-01-27T04:54:20.889Z,5.83
2023-01-27T04:57:03.384Z,6.03
2023-01-27T04:59:30.433Z,4.10
2023-01-27T05:01:57.578Z,5.05
2023-01-27T05:04:26.269Z,3.28
2023-01-27T05:06:53.120Z,6.20
2023-01-27T05:09:19.974Z,4.65
2023-01-27T05:11:46.725Z,4.55
2023-01-27T05:14:14.699Z,5.63
2023-01-27T05:16:41.543Z,3.88
2023-01-27T05:19:08.950Z,3.47
2023-01-27T05:21:35.712Z,2.58
2023-01-27T05:24:02.891Z,2.40
2023-01-27T05:26:29.722Z,2.88
2023-01-27T05:28:58.519Z,5.55
2023-01-27T05:31:31.692Z,3.53
2023-01-27T05:34:00.086Z,3.25
2023-01-27T05:36:27.684Z,3.33
2023-01-27T05:38:55.357Z,3.53
2023-01-27T05:41:22.518Z,3.85
2023-01-27T05:43:53.593Z,4.40
2023-01-27T05:46:37.571Z,3.25
2023-01-27T05:49:18.293Z,3.75
2023-01-27T05:51:45.003Z,5.18
2023-01-27T05:54:11.840Z,4.88
2023-01-27T05:56:39.333Z,2.77
2023-01-27T05:59:06.646Z,3.92
2023-01-27T06:01:35.369Z,4.78
2023-01-27T06:04:02.163Z,6.40
2023-01-27T06:06:30.399Z,5.28
2023-01-27T06:08:57.566Z,4.67
2023-01-27T06:11:25.241Z,4.07
2023-01-27T06:13:53.512Z,3.15
2023-01-27T06:16:23.057Z,4.10
2023-01-27T06:18:50.040Z,3.50
2023-01-27T06:21:17.756Z,2.53
2023-01-27T06:23:44.846Z,3.25
2023-01-27T06:26:16.951Z,3.70
2023-01-27T06:28:44.295Z,2.63
2023-01-27T06:31:12.498Z,3.67
2023-01-27T06:33:39.644Z,3.83
2023-01-27T06:36:15.591Z,3.42
2023-01-27T06:38:42.637Z,2.33
2023-01-27T06:41:09.638Z,2.45
2023-01-27T06:43:36.820Z,3.55
2023-01-27T06:46:05.772Z,1.83
2023-01-27T06:48:33.939Z,2.15
2023-01-27T06:51:01.317Z,1.73
2023-01-27T06:53:28.034Z,3.65
2023-01-27T06:55:59.278Z,2.50
2023-01-27T06:58:26.501Z,2.03
2023-01-27T07:00:53.605Z,3.75
2023-01-27T07:03:20.398Z,4.28
2023-01-27T07:05:47.174Z,3.25
2023-01-27T07:08:13.912Z,4.35
2023-01-27T07:10:40.802Z,4.23
2023-01-27T07:13:13.252Z,2.63
2023-01-27T07:15:42.174Z,3.53
2023-01-27T07:18:10.801Z,2.30
2023-01-27T07:20:37.704Z,2.72
2023-01-27T07:23:05.780Z,3.90
2023-01-27T07:25:34.310Z,2.05
2023-01-27T07:28:02.213Z,3.28
2023-01-27T07:30:29.513Z,5.47
2023-01-27T07:32:56.275Z,3.47
2023-01-27T07:35:23.591Z,2.23
2023-01-27T07:37:50.655Z,3.28
2023-01-27T07:40:18.602Z,3.00
2023-01-27T07:42:45.611Z,2.25
2023-01-27T07:45:12.475Z,2.88
2023-01-27T07:47:39.999Z,4.47
2023-01-27T07:50:07.585Z,3.67
2023-01-27T07:52:34.341Z,3.20
2023-01-27T07:55:01.074Z,2.92
2023-01-27T07:57:27.841Z,2.50
2023-01-27T07:59:56.564Z,5.00
2023-01-27T08:02:23.931Z,4.25
2023-01-27T08:04:58.341Z,3.58
2023-01-27T08:07:25.072Z,3.33
2023-01-27T08:09:54.374Z,3.08
2023-01-27T08:12:21.078Z,2.17
2023-01-27T08:14:47.880Z,2.25
2023-01-27T08:17:14.678Z,4.38
2023-01-27T08:19:41.406Z,2.70
2023-01-27T08:22:08.098Z,2.28
2023-01-27T08:24:34.905Z,3.50
2023-01-27T08:27:01.564Z,3.45
2023-01-27T08:29:29.542Z,2.97
2023-01-27T08:31:56.447Z,4.70
2023-01-27T08:34:23.329Z,3.47
2023-01-27T08:36:50.078Z,2.80
2023-01-27T08:39:16.846Z,3.50
2023-01-27T08:41:43.624Z,2.03
2023-01-27T08:44:10.558Z,3.22
2023-01-27T08:46:37.313Z,2.70
2023-01-27T08:49:04.089Z,2.33
2023-01-27T08:51:30.883Z,2.90
2023-01-27T08:53:57.668Z,4.05
2023-01-27T08:56:24.465Z,3.17
2023-01-27T08:58:52.466Z,3.03
2023-01-27T09:01:21.233Z,3.47
2023-01-27T09:03:48.693Z,2.67
2023-01-27T09:06:16.572Z,4.03
2023-01-27T09:08:44.418Z,3.67
2023-01-27T09:11:13.549Z,2.53
2023-01-27T09:13:40.349Z,2.67
2023-01-27T09:16:08.037Z,2.72
2023-01-27T09:18:34.879Z,2.08
2023-01-27T09:21:08.007Z,1.90
2023-01-27T09:23:35.031Z,4.03
2023-01-27T09:26:01.811Z,1.23
2023-01-27T09:28:28.546Z,1.40
2023-01-27T09:30:59.539Z,2.53
2023-01-27T09:33:27.065Z,3.45
2023-01-27T09:36:03.850Z,1.73
2023-01-27T09:38:34.721Z,1.87
2023-01-27T09:41:13.396Z,1.73
2023-01-27T09:44:01.199Z,2.35
2023-01-27T09:47:03.507Z,2.47
2023-01-27T09:49:57.768Z,1.73
2023-01-27T09:52:49.321Z,1.27
2023-01-27T09:55:35.076Z,3.13
2023-01-27T09:58:19.173Z,3.17
2023-01-27T10:01:12.151Z,1.42
2023-01-27T10:04:03.451Z,2.85
2023-01-27T10:06:30.117Z,1.80
2023-01-27T10:09:09.169Z,3.65
2023-01-27T10:11:51.820Z,3.70
2023-01-27T10:14:43.386Z,1.80
2023-01-27T10:17:57.384Z,3.15
2023-01-27T10:20:59.218Z,1.80
2023-01-27T10:23:37.317Z,1.83
2023-01-27T10:26:41.116Z,2.10
2023-01-27T10:29:25.621Z,1.75
2023-01-27T10:32:01.892Z,2.22
2023-01-27T10:34:35.455Z,4.47
2023-01-27T10:37:17.231Z,2.42
2023-01-27T10:39:59.249Z,2.70
2023-01-27T10:42:36.045Z,1.88
2023-01-27T10:45:18.222Z,1.38
2023-01-27T10:48:02.540Z,1.60
2023-01-27T10:50:38.959Z,1.73
2023-01-27T10:53:17.920Z,1.50
2023-01-27T10:56:04.803Z,1.98
2023-01-27T10:58:56.170Z,1.95
2023-01-27T11:01:31.046Z,3.60
2023-01-27T11:04:06.164Z,3.15
2023-01-27T11:06:37.629Z,3.63
2023-01-27T11:09:26.127Z,1.90
2023-01-27T11:11:53.996Z,3.72
2023-01-27T11:14:28.898Z,1.80
2023-01-27T11:17:15.236Z,1.42
2023-01-27T11:20:13.098Z,2.35
2023-01-27T11:22:55.911Z,2.53
2023-01-27T11:26:01.226Z,1.30
2023-01-27T11:29:03.027Z,2.20
2023-01-27T11:32:00.667Z,2.47
2023-01-27T11:34:49.332Z,4.65
2023-01-27T11:37:18.792Z,2.35
2023-01-27T11:39:45.972Z,2.53
2023-01-27T11:42:13.506Z,2.30
2023-01-27T11:44:42.287Z,1.98
2023-01-27T11:47:22.109Z,2.78
2023-01-27T11:49:52.507Z,3.28
2023-01-27T11:52:22.181Z,2.05
2023-01-27T11:54:54.180Z,2.37
2023-01-27T11:57:23.332Z,2.72
2023-01-27T12:00:05.269Z,2.30
2023-01-27T12:02:44.918Z,2.83
2023-01-27T12:05:17.706Z,1.98
2023-01-27T12:07:47.873Z,1.90
2023-01-27T12:10:35.237Z,3.50
2023-01-27T12:13:25.630Z,2.90
2023-01-27T12:16:05.366Z,2.47
2023-01-27T12:18:34.051Z,2.72
2023-01-27T12:21:03.562Z,4.30
2023-01-27T12:23:53.843Z,1.90
2023-01-27T12:26:38.800Z,3.60
2023-01-27T12:29:13.599Z,3.97
2023-01-27T12:31:48.095Z,3.38
2023-01-27T12:34:24.054Z,2.40
2023-01-27T12:36:52.113Z,2.75
2023-01-27T12:39:50.312Z,3.35
2023-01-27T12:42:41.640Z,2.90
2023-01-27T12:45:29.901Z,3.30
2023-01-27T12:48:01.879Z,5.13
2023-01-27T12:50:36.363Z,3.33
2023-01-27T12:53:05.546Z,2.33
2023-01-27T12:55:35.317Z,2.83
2023-01-27T12:58:03.178Z,4.47
2023-01-27T13:00:31.568Z,3.33
2023-01-27T13:03:06.288Z,5.55
2023-01-27T13:05:42.988Z,3.75
2023-01-27T13:08:19.609Z,3.42
2023-01-27T13:10:52.060Z,5.53
2023-01-27T13:13:23.824Z,4.50
2023-01-27T13:16:06.514Z,5.95
2023-01-27T13:18:35.568Z,2.53
2023-01-27T13:21:25.211Z,5.60
2023-01-27T13:23:53.933Z,2.53
2023-01-27T13:26:28.820Z,4.97
2023-01-27T13:29:02.742Z,3.38
2023-01-27T13:31:54.530Z,8.45
2023-01-27T13:34:52.948Z,3.28
2023-01-27T13:37:34.473Z,4.55
2023-01-27T13:40:30.802Z,6.30
2023-01-27T13:43:33.713Z,6.55
2023-01-27T13:46:19.822Z,4.40
2023-01-27T13:48:51.737Z,3.83
2023-01-27T13:51:21.093Z,2.92
2023-01-27T13:53:52.186Z,4.23
2023-01-27T13:56:25.898Z,4.38
2023-01-27T13:59:10.662Z,4.95
2023-01-27T14:01:53.336Z,4.45
2023-01-27T14:04:45.505Z,3.38
2023-01-27T14:07:25.564Z,3.17
2023-01-27T14:10:06.658Z,3.42
2023-01-27T14:13:10.953Z,2.17
2023-01-27T14:15:55.754Z,3.38
2023-01-27T14:18:30.764Z,3.92
2023-01-27T14:21:03.792Z,3.20
2023-01-27T14:24:00.879Z,1.88
2023-01-27T14:26:42.908Z,2.53
2023-01-27T14:29:21.686Z,3.35
2023-01-27T14:32:22.522Z,2.70
2023-01-27T14:35:17.360Z,3.30
2023-01-27T14:37:48.434Z,2.38
2023-01-27T14:40:17.860Z,6.40
2023-01-27T14:43:11.060Z,3.88
2023-01-27T14:45:40.630Z,3.05
2023-01-27T14:48:16.522Z,4.40
2023-01-27T14:51:00.118Z,2.08
2023-01-27T14:53:46.384Z,2.08
2023-01-27T14:56:25.058Z,4.82
2023-01-27T14:59:14.248Z,4.25
2023-01-27T15:01:53.117Z,1.93
2023-01-27T15:04:32.257Z,3.35
2023-01-27T15:07:19.532Z,2.13
2023-01-27T15:10:20.157Z,2.70
2023-01-27T15:13:24.530Z,2.72
2023-01-27T15:16:13.013Z,1.93
2023-01-27T15:19:01.452Z,2.75
2023-01-27T15:22:00.691Z,5.32
2023-01-27T15:24:48.494Z,3.20
2023-01-27T15:27:15.574Z,5.65
2023-01-27T15:29:42.367Z,4.50
2023-01-27T15:32:26.060Z,5.75
2023-01-27T15:35:14.359Z,5.03
2023-01-27T15:38:05.614Z,3.83
2023-01-27T15:41:01.717Z,7.78
2023-01-27T15:43:32.221Z,3.73
2023-01-27T15:46:20.034Z,3.20
2023-01-27T15:48:47.998Z,4.40
2023-01-27T15:51:20.008Z,3.38
2023-01-27T15:53:54.690Z,3.83
2023-01-27T15:56:41.112Z,4.87
2023-01-27T15:59:21.260Z,3.17
2023-01-27T16:01:49.566Z,2.97
2023-01-27T16:04:23.333Z,3.38
2023-01-27T16:07:02.428Z,2.03
2023-01-27T16:09:51.091Z,4.73
2023-01-27T16:12:24.238Z,3.67
2023-01-27T16:15:17.179Z,2.92
2023-01-27T16:18:09.250Z,7.90
2023-01-27T16:20:42.084Z,4.55
2023-01-27T16:23:16.845Z,4.27
2023-01-27T16:25:48.720Z,4.43
2023-01-27T16:28:28.036Z,3.65
2023-01-27T16:31:00.769Z,3.67
2023-01-27T16:33:38.457Z,3.90
2023-01-27T16:36:20.851Z,7.27
2023-01-27T16:38:49.044Z,4.45
2023-01-27T16:41:28.823Z,4.18
2023-01-27T16:44:21.222Z,6.25
2023-01-27T16:46:53.053Z,4.22
2023-01-27T16:49:24.691Z,4.60
2023-01-27T16:51:59.778Z,4.97
2023-01-27T16:54:30.944Z,5.70
2023-01-27T16:56:58.578Z,4.28
2023-01-27T16:59:27.432Z,4.30
2023-01-27T17:01:56.947Z,5.27
2023-01-27T17:04:29.637Z,4.85
2023-01-27T17:07:07.678Z,4.25
2023-01-27T17:09:41.020Z,3.95
2023-01-27T17:12:39.778Z,5.32
2023-01-27T17:15:16.777Z,3.57
2023-01-27T17:17:43.987Z,3.67
2023-01-27T17:20:25.970Z,3.97
2023-01-27T17:22:54.736Z,4.20
2023-01-27T17:25:37.969Z,4.47
2023-01-27T17:28:11.935Z,4.17
2023-01-27T17:30:42.098Z,3.70
2023-01-27T17:33:17.742Z,3.97
2023-01-27T17:35:53.218Z,3.25
2023-01-27T17:38:26.024Z,3.75
2023-01-27T17:40:54.719Z,3.77
2023-01-27T17:43:39.506Z,4.80
2023-01-27T17:46:09.818Z,4.53
2023-01-27T17:48:41.004Z,3.63
2023-01-27T17:51:13.944Z,4.80
2023-01-27T17:53:42.512Z,3.63
2023-01-27T17:56:17.548Z,2.83
2023-01-27T17:58:46.374Z,2.80
2023-01-27T18:01:22.725Z,3.28
2023-01-27T18:03:56.772Z,4.43
2023-01-27T18:06:29.580Z,4.37
2023-01-27T18:08:59.215Z,3.67
2023-01-27T18:11:31.691Z,4.55
2023-01-27T18:14:08.645Z,3.28
2023-01-27T18:16:35.919Z,2.95
2023-01-27T18:19:20.698Z,3.17
2023-01-27T18:21:49.100Z,2.95
2023-01-27T18:24:20.748Z,3.78
2023-01-27T18:26:48.636Z,3.40
2023-01-27T18:29:35.549Z,3.20
2023-01-27T18:32:16.872Z,4.43
2023-01-27T18:34:58.102Z,4.32
2023-01-27T18:37:34.347Z,18.02
2023-01-27T18:40:03.846Z,4.85
2023-01-27T18:42:31.581Z,4.82
2023-01-27T18:44:58.604Z,5.40
2023-01-27T18:47:26.800Z,5.45
2023-01-27T18:50:15.522Z,4.47
2023-01-27T18:52:43.212Z,3.78
2023-01-27T18:55:23.862Z,3.55
2023-01-27T18:57:55.534Z,3.43
2023-01-27T19:00:25.268Z,5.35
2023-01-27T19:02:59.296Z,5.72
2023-01-27T19:05:29.105Z,4.75
2023-01-27T19:07:56.182Z,5.03
2023-01-27T19:10:28.640Z,6.50
2023-01-27T19:12:58.363Z,6.75
2023-01-27T19:15:31.281Z,6.68
2023-01-27T19:18:00.179Z,6.68
2023-01-27T19:20:30.177Z,5.43
2023-01-27T19:22:58.620Z,6.00
2023-01-27T19:25:29.346Z,5.35
2023-01-27T19:28:05.460Z,6.45
2023-01-27T19:30:37.338Z,5.78
2023-01-27T19:33:13.228Z,4.53
2023-01-27T19:35:41.968Z,4.93
2023-01-27T19:38:12.269Z,7.00
2023-01-27T19:40:39.322Z,7.38
2023-01-27T19:43:06.057Z,5.15
2023-01-27T19:45:33.310Z,5.63
2023-01-27T19:48:01.039Z,5.83
2023-01-27T19:50:30.310Z,4.50
2023-01-27T19:52:58.381Z,8.65
2023-01-27T19:55:39.526Z,6.05
2023-01-27T19:58:07.895Z,8.00
2023-01-27T20:00:36.805Z,9.57
2023-01-27T20:03:04.348Z,7.60
2023-01-27T20:05:35.566Z,8.13
2023-01-27T20:08:02.719Z,5.90
2023-01-27T20:10:32.579Z,7.53
2023-01-27T20:13:03.108Z,6.47
2023-01-27T20:15:33.757Z,5.88
2023-01-27T20:18:14.725Z,8.60
2023-01-27T20:20:41.580Z,18.20
2023-01-27T20:23:10.999Z,5.90
2023-01-27T20:25:38.093Z,11.43
2023-01-27T20:28:05.139Z,6.13
2023-01-27T20:30:34.147Z,6.15
2023-01-27T20:33:02.695Z,6.68
2023-01-27T20:35:30.478Z,6.82
2023-01-27T20:37:57.684Z,8.53
2023-01-27T20:40:26.648Z,7.40
2023-01-27T20:42:53.697Z,7.78
2023-01-27T22:16:30.468Z,9.60
2023-01-27T22:18:57.159Z,7.60
2023-01-27T22:21:24.183Z,8.68
2023-01-27T22:23:51.132Z,7.87
2023-01-27T22:26:25.648Z,8.95
2023-01-27T22:28:52.546Z,8.57
2023-01-27T22:31:22.139Z,9.15
2023-01-27T22:33:49.119Z,11.30
2023-01-27T22:36:23.563Z,10.83
2023-01-27T22:38:50.687Z,10.40
2023-01-27T22:41:17.869Z,9.90
2023-01-27T22:43:44.896Z,10.75
2023-01-27T22:46:20.336Z,10.65
2023-01-27T22:49:04.520Z,10.77
2023-01-27T22:51:31.583Z,9.50
2023-01-27T22:53:58.760Z,10.75
2023-01-27T22:56:25.811Z,10.13
2023-01-27T22:58:52.889Z,9.27
2023-01-27T23:01:29.803Z,10.63
2023-01-27T23:03:59.349Z,8.32
2023-01-27T23:06:34.744Z,10.07
2023-01-27T23:09:01.921Z,10.98
2023-01-27T23:11:29.053Z,12.00
2023-01-27T23:13:56.487Z,10.07
2023-01-27T23:16:26.523Z,10.38
2023-01-27T23:18:53.561Z,10.60
2023-01-27T23:21:22.534Z,9.23
2023-01-27T23:23:51.014Z,8.43
2023-01-27T23:26:18.116Z,8.80
2023-01-27T23:28:50.680Z,8.98
2023-01-27T23:31:18.061Z,9.27
2023-01-27T23:37:41.235Z,8.13
2023-01-27T23:46:55.004Z,7.93
2023-01-27T23:49:24.225Z,6.47
2023-01-27T23:51:51.112Z,8.93
2023-01-27T23:54:18.026Z,7.70
2023-01-27T23:56:45.233Z,8.65
2023-01-27T23:59:13.419Z,9.05
